sensor_id;sensor_type;location;lat;lon;timestamp;temperature;humidity
27200;DHT22;14714;48.106;11.546;2024-02-04T00:02:09;6.40;99.90
27200;DHT22;14714;48.106;11.546;2024-02-04T00:04:40;6.40;99.90
27200;DHT22;14714;48.106;11.546;2024-02-04T00:07:08;6.40;99.90
27200;DHT22;14714;48.106;11.546;2024-02-04T00:09:35;6.40;99.90
27200;DHT22;14714;48.106;11.546;2024-02-04T00:12:03;6.40;99.90
27200;DHT22;14714;48.106;11.546;2024-02-04T00:14:31;6.40;99.90
27200;DHT22;14714;48.106;11.546;2024-02-04T00:16:58;6.40;99.90
27200;DHT22;14714;48.106;11.546;2024-02-04T00:19:25;6.40;99.90
27200;DHT22;14714;48.106;11.546;2024-02-04T00:21:53;6.40;99.90
27200;DHT22;14714;48.106;11.546;2024-02-04T00:24:20;6.40;99.90
27200;DHT22;14714;48.106;11.546;2024-02-04T00:26:47;6.40;99.90
27200;DHT22;14714;48.106;11.546;2024-02-04T00:29:14;6.40;99.90
27200;DHT22;14714;48.106;11.546;2024-02-04T00:31:41;6.40;99.90
27200;DHT22;14714;48.106;11.546;2024-02-04T00:34:08;6.40;99.90
27200;DHT22;14714;48.106;11.546;2024-02-04T00:36:35;6.40;99.90
27200;DHT22;14714;48.106;11.546;2024-02-04T00:39:02;6.40;99.90
27200;DHT22;14714;48.106;11.546;2024-02-04T00:41:29;6.40;99.90
27200;DHT22;14714;48.106;11.546;2024-02-04T00:43:56;6.50;99.90
27200;DHT22;14714;48.106;11.546;2024-02-04T00:46:23;6.40;99.90
27200;DHT22;14714;48.106;11.546;2024-02-04T00:48:50;6.50;99.90
27200;DHT22;14714;48.106;11.546;2024-02-04T00:51:18;6.40;99.90
27200;DHT22;14714;48.106;11.546;2024-02-04T00:53:46;6.40;99.90
27200;DHT22;14714;48.106;11.546;2024-02-04T00:56:13;6.40;99.90
27200;DHT22;14714;48.106;11.546;2024-02-04T00:58:40;6.40;99.90
27200;DHT22;14714;48.106;11.546;2024-02-04T01:01:07;6.40;99.90
27200;DHT22;14714;48.106;11.546;2024-02-04T01:03:34;6.40;99.90
27200;DHT22;14714;48.106;11.546;2024-02-04T01:06:01;6.30;99.90
27200;DHT22;14714;48.106;11.546;2024-02-04T01:08:28;6.30;99.90
27200;DHT22;14714;48.106;11.546;2024-02-04T01:10:55;6.30;99.90
27200;DHT22;14714;48.106;11.546;2024-02-04T01:13:22;6.30;99.90
27200;DHT22;14714;48.106;11.546;2024-02-04T01:15:49;6.30;99.90
27200;DHT22;14714;48.106;11.546;2024-02-04T01:18:16;6.20;99.90
27200;DHT22;14714;48.106;11.546;2024-02-04T01:20:43;6.20;99.90
27200;DHT22;14714;48.106;11.546;2024-02-04T01:23:09;6.20;99.90
27200;DHT22;14714;48.106;11.546;2024-02-04T01:25:36;6.20;99.90
27200;DHT22;14714;48.106;11.546;2024-02-04T01:28:09;6.10;99.90
27200;DHT22;14714;48.106;11.546;2024-02-04T01:30:36;6.10;99.90
27200;DHT22;14714;48.106;11.546;2024-02-04T01:33:04;6.10;99.90
27200;DHT22;14714;48.106;11.546;2024-02-04T01:35:31;6.00;99.90
27200;DHT22;14714;48.106;11.546;2024-02-04T01:37:58;6.00;99.90
27200;DHT22;14714;48.106;11.546;2024-02-04T01:40:25;6.00;99.90
27200;DHT22;14714;48.106;11.546;2024-02-04T01:42:52;5.90;99.90
27200;DHT22;14714;48.106;11.546;2024-02-04T01:45:19;5.80;99.90
27200;DHT22;14714;48.106;11.546;2024-02-04T01:47:46;5.80;99.90
27200;DHT22;14714;48.106;11.546;2024-02-04T01:50:14;5.80;99.90
27200;DHT22;14714;48.106;11.546;2024-02-04T01:52:43;5.70;99.90
27200;DHT22;14714;48.106;11.546;2024-02-04T01:55:11;5.70;99.90
27200;DHT22;14714;48.106;11.546;2024-02-04T01:57:38;5.60;99.90
27200;DHT22;14714;48.106;11.546;2024-02-04T02:00:06;5.60;99.90
27200;DHT22;14714;48.106;11.546;2024-02-04T02:02:39;5.60;99.90
27200;DHT22;14714;48.106;11.546;2024-02-04T02:05:07;5.60;99.90
27200;DHT22;14714;48.106;11.546;2024-02-04T02:07:35;5.60;99.90
27200;DHT22;14714;48.106;11.546;2024-02-04T02:10:02;5.60;99.90
27200;DHT22;14714;48.106;11.546;2024-02-04T02:12:36;5.70;99.90
27200;DHT22;14714;48.106;11.546;2024-02-04T02:15:12;5.70;99.90
27200;DHT22;14714;48.106;11.546;2024-02-04T02:18:01;5.80;99.90
27200;DHT22;14714;48.106;11.546;2024-02-04T02:20:47;5.80;99.90
27200;DHT22;14714;48.106;11.546;2024-02-04T02:23:30;5.80;99.90
27200;DHT22;14714;48.106;11.546;2024-02-04T02:25:58;5.80;99.90
27200;DHT22;14714;48.106;11.546;2024-02-04T02:28:25;5.80;99.90
27200;DHT22;14714;48.106;11.546;2024-02-04T02:30:52;5.80;99.90
27200;DHT22;14714;48.106;11.546;2024-02-04T02:33:19;5.80;99.90
27200;DHT22;14714;48.106;11.546;2024-02-04T02:35:51;5.80;99.90
27200;DHT22;14714;48.106;11.546;2024-02-04T02:38:30;5.80;99.90
27200;DHT22;14714;48.106;11.546;2024-02-04T02:41:03;5.80;99.90
27200;DHT22;14714;48.106;11.546;2024-02-04T02:43:32;5.80;99.90
27200;DHT22;14714;48.106;11.546;2024-02-04T02:46:00;5.80;99.90
27200;DHT22;14714;48.106;11.546;2024-02-04T02:48:28;5.80;99.90
27200;DHT22;14714;48.106;11.546;2024-02-04T02:50:55;5.80;99.90
27200;DHT22;14714;48.106;11.546;2024-02-04T02:53:22;5.80;99.90
27200;DHT22;14714;48.106;11.546;2024-02-04T02:55:49;5.80;99.90
27200;DHT22;14714;48.106;11.546;2024-02-04T02:58:16;5.80;99.90
27200;DHT22;14714;48.106;11.546;2024-02-04T03:00:43;5.90;99.90
27200;DHT22;14714;48.106;11.546;2024-02-04T03:03:12;5.90;99.90
27200;DHT22;14714;48.106;11.546;2024-02-04T03:05:39;5.90;99.90
27200;DHT22;14714;48.106;11.546;2024-02-04T03:08:06;5.90;99.90
27200;DHT22;14714;48.106;11.546;2024-02-04T03:10:33;5.90;99.90
27200;DHT22;14714;48.106;11.546;2024-02-04T03:12:59;6.00;99.90
27200;DHT22;14714;48.106;11.546;2024-02-04T03:15:27;6.00;99.90
27200;DHT22;14714;48.106;11.546;2024-02-04T03:17:54;6.00;99.90
27200;DHT22;14714;48.106;11.546;2024-02-04T03:20:21;6.00;99.90
27200;DHT22;14714;48.106;11.546;2024-02-04T03:22:48;6.00;99.90
27200;DHT22;14714;48.106;11.546;2024-02-04T03:25:15;6.00;99.90
27200;DHT22;14714;48.106;11.546;2024-02-04T03:27:42;6.00;99.90
27200;DHT22;14714;48.106;11.546;2024-02-04T03:30:09;6.00;99.90
27200;DHT22;14714;48.106;11.546;2024-02-04T03:32:36;6.00;99.90
27200;DHT22;14714;48.106;11.546;2024-02-04T03:35:03;6.00;99.90
27200;DHT22;14714;48.106;11.546;2024-02-04T03:37:31;6.00;99.90
27200;DHT22;14714;48.106;11.546;2024-02-04T03:39:58;6.10;99.90
27200;DHT22;14714;48.106;11.546;2024-02-04T03:42:25;6.10;99.90
27200;DHT22;14714;48.106;11.546;2024-02-04T03:44:52;6.20;99.90
27200;DHT22;14714;48.106;11.546;2024-02-04T03:47:19;6.20;99.90
27200;DHT22;14714;48.106;11.546;2024-02-04T03:49:45;6.30;99.90
27200;DHT22;14714;48.106;11.546;2024-02-04T03:52:12;6.30;99.90
27200;DHT22;14714;48.106;11.546;2024-02-04T03:54:39;6.30;99.90
27200;DHT22;14714;48.106;11.546;2024-02-04T03:57:06;6.40;99.90
27200;DHT22;14714;48.106;11.546;2024-02-04T03:59:33;6.40;99.90
27200;DHT22;14714;48.106;11.546;2024-02-04T04:02:00;6.40;99.90
27200;DHT22;14714;48.106;11.546;2024-02-04T04:04:27;6.40;99.90
27200;DHT22;14714;48.106;11.546;2024-02-04T04:06:54;6.40;99.90
27200;DHT22;14714;48.106;11.546;2024-02-04T04:09:21;6.50;99.90
27200;DHT22;14714;48.106;11.546;2024-02-04T04:11:48;6.50;99.90
27200;DHT22;14714;48.106;11.546;2024-02-04T04:14:15;6.50;99.90
27200;DHT22;14714;48.106;11.546;2024-02-04T04:16:42;6.60;99.90
27200;DHT22;14714;48.106;11.546;2024-02-04T04:19:08;6.60;99.90
27200;DHT22;14714;48.106;11.546;2024-02-04T04:21:37;6.60;99.90
27200;DHT22;14714;48.106;11.546;2024-02-04T04:24:04;6.60;99.90
27200;DHT22;14714;48.106;11.546;2024-02-04T04:26:31;6.70;99.90
27200;DHT22;14714;48.106;11.546;2024-02-04T04:28:59;6.70;99.90
27200;DHT22;14714;48.106;11.546;2024-02-04T04:31:26;6.70;99.90
27200;DHT22;14714;48.106;11.546;2024-02-04T04:33:53;6.70;99.90
27200;DHT22;14714;48.106;11.546;2024-02-04T04:36:21;6.70;99.90
27200;DHT22;14714;48.106;11.546;2024-02-04T04:38:47;6.70;99.90
27200;DHT22;14714;48.106;11.546;2024-02-04T04:41:17;6.80;99.90
27200;DHT22;14714;48.106;11.546;2024-02-04T04:43:44;6.80;99.90
27200;DHT22;14714;48.106;11.546;2024-02-04T04:46:11;6.80;99.90
27200;DHT22;14714;48.106;11.546;2024-02-04T04:48:37;6.80;99.90
27200;DHT22;14714;48.106;11.546;2024-02-04T04:51:08;6.80;99.90
27200;DHT22;14714;48.106;11.546;2024-02-04T04:53:35;6.80;99.90
27200;DHT22;14714;48.106;11.546;2024-02-04T04:56:03;6.80;99.90
27200;DHT22;14714;48.106;11.546;2024-02-04T04:58:30;6.80;99.90
27200;DHT22;14714;48.106;11.546;2024-02-04T05:00:57;6.80;99.90
27200;DHT22;14714;48.106;11.546;2024-02-04T05:03:24;6.80;99.90
27200;DHT22;14714;48.106;11.546;2024-02-04T05:05:51;6.80;99.90
27200;DHT22;14714;48.106;11.546;2024-02-04T05:08:18;6.80;99.90
27200;DHT22;14714;48.106;11.546;2024-02-04T05:10:45;6.80;99.90
27200;DHT22;14714;48.106;11.546;2024-02-04T05:13:11;6.80;99.90
27200;DHT22;14714;48.106;11.546;2024-02-04T05:15:38;6.80;99.90
27200;DHT22;14714;48.106;11.546;2024-02-04T05:18:05;6.80;99.90
27200;DHT22;14714;48.106;11.546;2024-02-04T05:20:32;6.80;99.90
27200;DHT22;14714;48.106;11.546;2024-02-04T05:23:00;6.80;99.90
27200;DHT22;14714;48.106;11.546;2024-02-04T05:25:27;6.80;99.90
27200;DHT22;14714;48.106;11.546;2024-02-04T05:27:53;6.80;99.90
27200;DHT22;14714;48.106;11.546;2024-02-04T05:30:20;6.80;99.90
27200;DHT22;14714;48.106;11.546;2024-02-04T05:32:47;6.80;99.90
27200;DHT22;14714;48.106;11.546;2024-02-04T05:35:14;6.90;99.90
27200;DHT22;14714;48.106;11.546;2024-02-04T05:37:41;6.90;99.90
27200;DHT22;14714;48.106;11.546;2024-02-04T05:40:08;6.90;99.90
27200;DHT22;14714;48.106;11.546;2024-02-04T05:42:35;6.90;99.90
27200;DHT22;14714;48.106;11.546;2024-02-04T05:45:04;6.90;99.90
27200;DHT22;14714;48.106;11.546;2024-02-04T05:47:32;6.80;99.90
27200;DHT22;14714;48.106;11.546;2024-02-04T05:49:59;6.90;99.90
27200;DHT22;14714;48.106;11.546;2024-02-04T05:52:26;6.80;99.90
27200;DHT22;14714;48.106;11.546;2024-02-04T05:54:53;6.80;99.90
27200;DHT22;14714;48.106;11.546;2024-02-04T05:57:20;6.80;99.90
27200;DHT22;14714;48.106;11.546;2024-02-04T05:59:47;6.80;99.90
27200;DHT22;14714;48.106;11.546;2024-02-04T06:02:15;6.80;99.90
27200;DHT22;14714;48.106;11.546;2024-02-04T06:04:41;6.70;99.90
27200;DHT22;14714;48.106;11.546;2024-02-04T06:07:08;6.80;99.90
27200;DHT22;14714;48.106;11.546;2024-02-04T06:09:35;6.70;99.90
27200;DHT22;14714;48.106;11.546;2024-02-04T06:12:02;6.70;99.90
27200;DHT22;14714;48.106;11.546;2024-02-04T06:14:33;6.70;99.90
27200;DHT22;14714;48.106;11.546;2024-02-04T06:17:00;6.70;99.90
27200;DHT22;14714;48.106;11.546;2024-02-04T06:19:27;6.70;99.90
27200;DHT22;14714;48.106;11.546;2024-02-04T06:21:54;6.70;99.90
27200;DHT22;14714;48.106;11.546;2024-02-04T06:24:21;6.70;99.90
27200;DHT22;14714;48.106;11.546;2024-02-04T06:26:47;6.70;99.90
27200;DHT22;14714;48.106;11.546;2024-02-04T06:29:14;6.70;99.90
27200;DHT22;14714;48.106;11.546;2024-02-04T06:31:44;6.70;99.90
27200;DHT22;14714;48.106;11.546;2024-02-04T06:34:12;6.70;99.90
27200;DHT22;14714;48.106;11.546;2024-02-04T06:36:43;6.60;99.90
27200;DHT22;14714;48.106;11.546;2024-02-04T06:39:11;6.70;99.90
27200;DHT22;14714;48.106;11.546;2024-02-04T06:41:38;6.70;99.90
27200;DHT22;14714;48.106;11.546;2024-02-04T06:44:05;6.70;99.90
27200;DHT22;14714;48.106;11.546;2024-02-04T06:46:32;6.70;99.90
27200;DHT22;14714;48.106;11.546;2024-02-04T06:48:59;6.70;99.90
27200;DHT22;14714;48.106;11.546;2024-02-04T06:51:26;6.70;99.90
27200;DHT22;14714;48.106;11.546;2024-02-04T06:53:53;6.70;99.90
27200;DHT22;14714;48.106;11.546;2024-02-04T06:56:20;6.70;99.90
27200;DHT22;14714;48.106;11.546;2024-02-04T06:58:46;6.80;99.90
27200;DHT22;14714;48.106;11.546;2024-02-04T07:01:15;6.80;99.90
27200;DHT22;14714;48.106;11.546;2024-02-04T07:03:42;6.80;99.90
27200;DHT22;14714;48.106;11.546;2024-02-04T07:06:09;6.80;99.90
27200;DHT22;14714;48.106;11.546;2024-02-04T07:08:36;6.80;99.90
27200;DHT22;14714;48.106;11.546;2024-02-04T07:11:03;6.80;99.90
27200;DHT22;14714;48.106;11.546;2024-02-04T07:13:30;6.80;99.90
27200;DHT22;14714;48.106;11.546;2024-02-04T07:15:57;6.90;99.90
27200;DHT22;14714;48.106;11.546;2024-02-04T07:18:24;6.90;99.90
27200;DHT22;14714;48.106;11.546;2024-02-04T07:20:51;6.90;99.90
27200;DHT22;14714;48.106;11.546;2024-02-04T07:23:18;6.90;99.90
27200;DHT22;14714;48.106;11.546;2024-02-04T07:25:45;7.00;99.90
27200;DHT22;14714;48.106;11.546;2024-02-04T07:28:12;7.10;99.90
27200;DHT22;14714;48.106;11.546;2024-02-04T07:30:39;7.10;99.90
27200;DHT22;14714;48.106;11.546;2024-02-04T07:33:06;7.20;99.90
27200;DHT22;14714;48.106;11.546;2024-02-04T07:35:34;7.20;99.90
27200;DHT22;14714;48.106;11.546;2024-02-04T07:38:01;7.30;99.90
27200;DHT22;14714;48.106;11.546;2024-02-04T07:40:28;7.30;99.90
27200;DHT22;14714;48.106;11.546;2024-02-04T07:42:54;7.40;99.90
27200;DHT22;14714;48.106;11.546;2024-02-04T07:45:22;7.40;99.90
27200;DHT22;14714;48.106;11.546;2024-02-04T07:47:48;7.50;99.90
27200;DHT22;14714;48.106;11.546;2024-02-04T07:50:16;7.60;99.90
27200;DHT22;14714;48.106;11.546;2024-02-04T07:52:43;7.70;99.90
27200;DHT22;14714;48.106;11.546;2024-02-04T07:55:11;7.70;99.90
27200;DHT22;14714;48.106;11.546;2024-02-04T07:57:38;7.80;99.90
27200;DHT22;14714;48.106;11.546;2024-02-04T08:00:06;7.90;99.90
27200;DHT22;14714;48.106;11.546;2024-02-04T08:02:33;8.10;99.90
27200;DHT22;14714;48.106;11.546;2024-02-04T08:05:00;8.30;99.90
27200;DHT22;14714;48.106;11.546;2024-02-04T08:07:27;8.60;99.90
27200;DHT22;14714;48.106;11.546;2024-02-04T08:09:54;8.80;99.90
27200;DHT22;14714;48.106;11.546;2024-02-04T08:12:21;9.10;99.90
27200;DHT22;14714;48.106;11.546;2024-02-04T08:14:48;9.20;99.90
27200;DHT22;14714;48.106;11.546;2024-02-04T08:17:15;9.30;99.90
27200;DHT22;14714;48.106;11.546;2024-02-04T08:19:42;9.40;99.90
27200;DHT22;14714;48.106;11.546;2024-02-04T08:22:09;9.30;99.90
27200;DHT22;14714;48.106;11.546;2024-02-04T08:24:36;9.40;99.90
27200;DHT22;14714;48.106;11.546;2024-02-04T08:27:03;9.50;99.90
27200;DHT22;14714;48.106;11.546;2024-02-04T08:29:30;9.50;99.90
27200;DHT22;14714;48.106;11.546;2024-02-04T08:31:57;9.50;99.90
27200;DHT22;14714;48.106;11.546;2024-02-04T08:34:24;9.50;99.90
27200;DHT22;14714;48.106;11.546;2024-02-04T08:36:52;9.50;99.90
27200;DHT22;14714;48.106;11.546;2024-02-04T08:39:19;9.50;99.90
27200;DHT22;14714;48.106;11.546;2024-02-04T08:41:46;9.60;99.90
27200;DHT22;14714;48.106;11.546;2024-02-04T08:44:13;9.60;99.90
27200;DHT22;14714;48.106;11.546;2024-02-04T08:46:57;9.70;99.90
27200;DHT22;14714;48.106;11.546;2024-02-04T08:49:24;9.80;99.90
27200;DHT22;14714;48.106;11.546;2024-02-04T08:51:51;9.80;99.90
27200;DHT22;14714;48.106;11.546;2024-02-04T08:54:18;10.00;99.90
27200;DHT22;14714;48.106;11.546;2024-02-04T08:56:46;10.20;99.90
27200;DHT22;14714;48.106;11.546;2024-02-04T08:59:13;10.20;99.90
27200;DHT22;14714;48.106;11.546;2024-02-04T09:01:40;10.40;99.90
27200;DHT22;14714;48.106;11.546;2024-02-04T09:04:07;10.40;99.90
27200;DHT22;14714;48.106;11.546;2024-02-04T09:06:34;10.40;99.90
27200;DHT22;14714;48.106;11.546;2024-02-04T09:09:01;10.50;99.90
27200;DHT22;14714;48.106;11.546;2024-02-04T09:11:29;10.50;99.90
27200;DHT22;14714;48.106;11.546;2024-02-04T09:13:55;10.60;99.90
27200;DHT22;14714;48.106;11.546;2024-02-04T09:16:22;10.90;99.90
27200;DHT22;14714;48.106;11.546;2024-02-04T09:18:50;11.30;99.90
27200;DHT22;14714;48.106;11.546;2024-02-04T09:21:17;11.70;99.90
27200;DHT22;14714;48.106;11.546;2024-02-04T09:23:44;12.20;99.90
27200;DHT22;14714;48.106;11.546;2024-02-04T09:26:11;12.30;99.90
27200;DHT22;14714;48.106;11.546;2024-02-04T09:28:41;12.20;99.90
27200;DHT22;14714;48.106;11.546;2024-02-04T09:31:08;12.20;99.90
27200;DHT22;14714;48.106;11.546;2024-02-04T09:33:36;12.00;99.90
27200;DHT22;14714;48.106;11.546;2024-02-04T09:36:05;11.90;99.90
27200;DHT22;14714;48.106;11.546;2024-02-04T09:38:32;11.80;99.90
27200;DHT22;14714;48.106;11.546;2024-02-04T09:41:00;11.70;99.90
27200;DHT22;14714;48.106;11.546;2024-02-04T09:43:28;11.60;99.90
27200;DHT22;14714;48.106;11.546;2024-02-04T09:45:55;11.50;99.90
27200;DHT22;14714;48.106;11.546;2024-02-04T09:48:22;11.50;99.90
27200;DHT22;14714;48.106;11.546;2024-02-04T09:50:52;11.50;99.90
27200;DHT22;14714;48.106;11.546;2024-02-04T09:53:24;11.50;99.90
27200;DHT22;14714;48.106;11.546;2024-02-04T09:55:56;11.50;99.90
27200;DHT22;14714;48.106;11.546;2024-02-04T09:58:24;11.50;99.90
27200;DHT22;14714;48.106;11.546;2024-02-04T10:00:51;11.50;99.90
27200;DHT22;14714;48.106;11.546;2024-02-04T10:03:18;11.40;99.90
27200;DHT22;14714;48.106;11.546;2024-02-04T10:05:45;11.30;99.90
27200;DHT22;14714;48.106;11.546;2024-02-04T10:08:13;11.20;99.90
27200;DHT22;14714;48.106;11.546;2024-02-04T10:10:44;11.20;99.90
27200;DHT22;14714;48.106;11.546;2024-02-04T10:13:12;11.20;99.90
27200;DHT22;14714;48.106;11.546;2024-02-04T10:15:39;11.30;99.90
27200;DHT22;14714;48.106;11.546;2024-02-04T10:18:07;11.40;99.90
27200;DHT22;14714;48.106;11.546;2024-02-04T10:20:34;11.50;99.90
27200;DHT22;14714;48.106;11.546;2024-02-04T10:23:01;11.50;99.90
27200;DHT22;14714;48.106;11.546;2024-02-04T10:25:28;11.60;99.90
27200;DHT22;14714;48.106;11.546;2024-02-04T10:27:55;11.60;99.90
27200;DHT22;14714;48.106;11.546;2024-02-04T10:30:22;11.60;99.90
27200;DHT22;14714;48.106;11.546;2024-02-04T10:32:53;11.60;99.90
27200;DHT22;14714;48.106;11.546;2024-02-04T10:35:21;11.60;99.90
27200;DHT22;14714;48.106;11.546;2024-02-04T10:37:50;11.70;99.90
27200;DHT22;14714;48.106;11.546;2024-02-04T10:40:17;11.80;99.90
27200;DHT22;14714;48.106;11.546;2024-02-04T10:42:45;11.90;99.90
27200;DHT22;14714;48.106;11.546;2024-02-04T10:45:13;12.10;99.90
27200;DHT22;14714;48.106;11.546;2024-02-04T10:47:50;12.10;99.90
27200;DHT22;14714;48.106;11.546;2024-02-04T10:50:19;12.20;99.90
27200;DHT22;14714;48.106;11.546;2024-02-04T10:52:46;12.50;99.90
27200;DHT22;14714;48.106;11.546;2024-02-04T10:55:17;12.90;99.90
27200;DHT22;14714;48.106;11.546;2024-02-04T10:57:46;13.10;99.90
27200;DHT22;14714;48.106;11.546;2024-02-04T11:00:14;13.30;99.90
27200;DHT22;14714;48.106;11.546;2024-02-04T11:02:43;13.50;99.90
27200;DHT22;14714;48.106;11.546;2024-02-04T11:05:15;13.70;99.90
27200;DHT22;14714;48.106;11.546;2024-02-04T11:07:43;14.00;99.90
27200;DHT22;14714;48.106;11.546;2024-02-04T11:10:10;14.30;99.90
27200;DHT22;14714;48.106;11.546;2024-02-04T11:12:39;14.30;99.90
27200;DHT22;14714;48.106;11.546;2024-02-04T11:15:09;14.30;99.90
27200;DHT22;14714;48.106;11.546;2024-02-04T11:23:27;14.80;99.90
27200;DHT22;14714;48.106;11.546;2024-02-04T11:25:59;15.20;99.90
27200;DHT22;14714;48.106;11.546;2024-02-04T11:28:26;15.60;99.20
27200;DHT22;14714;48.106;11.546;2024-02-04T11:30:54;15.70;98.50
27200;DHT22;14714;48.106;11.546;2024-02-04T11:33:22;15.90;97.40
27200;DHT22;14714;48.106;11.546;2024-02-04T11:36:23;15.90;96.10
27200;DHT22;14714;48.106;11.546;2024-02-04T11:38:51;16.00;96.90
27200;DHT22;14714;48.106;11.546;2024-02-04T11:41:22;16.20;96.30
27200;DHT22;14714;48.106;11.546;2024-02-04T11:43:54;16.40;94.80
27200;DHT22;14714;48.106;11.546;2024-02-04T11:46:30;16.30;93.80
27200;DHT22;14714;48.106;11.546;2024-02-04T11:48:59;15.80;94.30
27200;DHT22;14714;48.106;11.546;2024-02-04T11:51:27;15.40;94.80
27200;DHT22;14714;48.106;11.546;2024-02-04T11:53:54;15.00;95.40
27200;DHT22;14714;48.106;11.546;2024-02-04T11:56:24;14.70;96.20
27200;DHT22;14714;48.106;11.546;2024-02-04T11:58:51;14.50;96.10
27200;DHT22;14714;48.106;11.546;2024-02-04T12:01:22;14.30;96.40
27200;DHT22;14714;48.106;11.546;2024-02-04T12:03:49;14.10;96.70
27200;DHT22;14714;48.106;11.546;2024-02-04T12:06:16;13.80;96.80
27200;DHT22;14714;48.106;11.546;2024-02-04T12:08:44;13.60;97.70
27200;DHT22;14714;48.106;11.546;2024-02-04T12:11:11;13.40;98.00
27200;DHT22;14714;48.106;11.546;2024-02-04T12:13:38;13.20;99.00
27200;DHT22;14714;48.106;11.546;2024-02-04T12:16:08;13.20;99.20
27200;DHT22;14714;48.106;11.546;2024-02-04T12:18:35;13.10;99.90
27200;DHT22;14714;48.106;11.546;2024-02-04T12:21:02;13.20;99.20
27200;DHT22;14714;48.106;11.546;2024-02-04T12:23:30;13.10;99.40
27200;DHT22;14714;48.106;11.546;2024-02-04T12:25:58;13.10;99.60
27200;DHT22;14714;48.106;11.546;2024-02-04T12:28:25;13.20;99.10
27200;DHT22;14714;48.106;11.546;2024-02-04T12:30:54;13.10;99.00
27200;DHT22;14714;48.106;11.546;2024-02-04T12:33:22;13.10;99.10
27200;DHT22;14714;48.106;11.546;2024-02-04T12:35:50;13.00;99.10
27200;DHT22;14714;48.106;11.546;2024-02-04T12:38:18;12.90;99.20
27200;DHT22;14714;48.106;11.546;2024-02-04T12:40:44;12.80;99.60
27200;DHT22;14714;48.106;11.546;2024-02-04T12:43:11;12.80;99.90
27200;DHT22;14714;48.106;11.546;2024-02-04T12:45:39;12.70;99.80
27200;DHT22;14714;48.106;11.546;2024-02-04T12:48:06;12.60;99.80
27200;DHT22;14714;48.106;11.546;2024-02-04T12:50:37;12.50;99.90
27200;DHT22;14714;48.106;11.546;2024-02-04T12:53:08;12.40;99.90
27200;DHT22;14714;48.106;11.546;2024-02-04T12:55:39;12.40;99.90
27200;DHT22;14714;48.106;11.546;2024-02-04T12:58:12;12.40;99.90
27200;DHT22;14714;48.106;11.546;2024-02-04T13:00:41;12.40;99.90
27200;DHT22;14714;48.106;11.546;2024-02-04T13:03:09;12.40;99.90
27200;DHT22;14714;48.106;11.546;2024-02-04T13:05:37;12.50;99.90
27200;DHT22;14714;48.106;11.546;2024-02-04T13:08:04;12.60;99.90
27200;DHT22;14714;48.106;11.546;2024-02-04T13:10:34;12.70;99.90
27200;DHT22;14714;48.106;11.546;2024-02-04T13:13:06;12.80;99.90
27200;DHT22;14714;48.106;11.546;2024-02-04T13:15:38;13.00;99.90
27200;DHT22;14714;48.106;11.546;2024-02-04T13:18:06;13.20;99.60
27200;DHT22;14714;48.106;11.546;2024-02-04T13:20:32;13.20;98.90
27200;DHT22;14714;48.106;11.546;2024-02-04T13:22:59;13.20;99.00
27200;DHT22;14714;48.106;11.546;2024-02-04T13:25:27;13.20;99.40
27200;DHT22;14714;48.106;11.546;2024-02-04T13:27:54;13.20;98.50
27200;DHT22;14714;48.106;11.546;2024-02-04T13:30:21;13.10;97.90
27200;DHT22;14714;48.106;11.546;2024-02-04T13:32:48;13.00;98.10
27200;DHT22;14714;48.106;11.546;2024-02-04T13:35:16;13.00;98.40
27200;DHT22;14714;48.106;11.546;2024-02-04T13:37:47;13.00;98.40
27200;DHT22;14714;48.106;11.546;2024-02-04T13:40:15;12.90;98.40
27200;DHT22;14714;48.106;11.546;2024-02-04T13:42:43;13.00;98.50
27200;DHT22;14714;48.106;11.546;2024-02-04T13:45:11;12.90;98.70
27200;DHT22;14714;48.106;11.546;2024-02-04T13:47:41;12.90;98.80
27200;DHT22;14714;48.106;11.546;2024-02-04T13:50:09;12.90;99.00
27200;DHT22;14714;48.106;11.546;2024-02-04T13:52:36;12.90;99.00
27200;DHT22;14714;48.106;11.546;2024-02-04T13:55:04;12.80;99.30
27200;DHT22;14714;48.106;11.546;2024-02-04T13:57:32;12.70;99.50
27200;DHT22;14714;48.106;11.546;2024-02-04T14:00:00;12.70;99.70
27200;DHT22;14714;48.106;11.546;2024-02-04T14:02:27;12.70;99.90
27200;DHT22;14714;48.106;11.546;2024-02-04T14:04:56;12.60;99.90
27200;DHT22;14714;48.106;11.546;2024-02-04T14:07:25;12.70;99.90
27200;DHT22;14714;48.106;11.546;2024-02-04T14:09:52;12.70;99.90
27200;DHT22;14714;48.106;11.546;2024-02-04T14:12:19;12.60;99.90
27200;DHT22;14714;48.106;11.546;2024-02-04T14:14:46;12.60;99.90
27200;DHT22;14714;48.106;11.546;2024-02-04T14:17:13;12.50;99.90
27200;DHT22;14714;48.106;11.546;2024-02-04T14:19:40;12.50;99.90
27200;DHT22;14714;48.106;11.546;2024-02-04T14:22:07;12.50;99.90
27200;DHT22;14714;48.106;11.546;2024-02-04T14:24:34;12.40;99.90
27200;DHT22;14714;48.106;11.546;2024-02-04T14:27:02;12.40;99.90
27200;DHT22;14714;48.106;11.546;2024-02-04T14:29:29;12.30;99.90
27200;DHT22;14714;48.106;11.546;2024-02-04T14:31:56;12.30;99.90
27200;DHT22;14714;48.106;11.546;2024-02-04T14:34:24;12.30;99.90
27200;DHT22;14714;48.106;11.546;2024-02-04T14:36:52;12.20;99.90
27200;DHT22;14714;48.106;11.546;2024-02-04T14:39:19;12.20;99.90
27200;DHT22;14714;48.106;11.546;2024-02-04T14:41:46;12.10;99.90
27200;DHT22;14714;48.106;11.546;2024-02-04T14:44:13;12.10;99.90
27200;DHT22;14714;48.106;11.546;2024-02-04T14:46:40;12.00;99.90
27200;DHT22;14714;48.106;11.546;2024-02-04T14:49:06;12.00;99.90
27200;DHT22;14714;48.106;11.546;2024-02-04T14:51:34;12.00;99.90
27200;DHT22;14714;48.106;11.546;2024-02-04T14:54:02;11.90;99.90
27200;DHT22;14714;48.106;11.546;2024-02-04T14:56:29;11.90;99.90
27200;DHT22;14714;48.106;11.546;2024-02-04T14:58:56;11.90;99.90
27200;DHT22;14714;48.106;11.546;2024-02-04T15:01:23;11.80;99.90
27200;DHT22;14714;48.106;11.546;2024-02-04T15:03:50;11.80;99.90
27200;DHT22;14714;48.106;11.546;2024-02-04T15:06:17;11.70;99.90
27200;DHT22;14714;48.106;11.546;2024-02-04T15:08:46;11.70;99.90
27200;DHT22;14714;48.106;11.546;2024-02-04T15:11:13;11.70;99.90
27200;DHT22;14714;48.106;11.546;2024-02-04T15:13:40;11.70;99.90
27200;DHT22;14714;48.106;11.546;2024-02-04T15:16:07;11.60;99.90
27200;DHT22;14714;48.106;11.546;2024-02-04T15:18:35;11.60;99.90
27200;DHT22;14714;48.106;11.546;2024-02-04T15:21:02;11.70;99.90
27200;DHT22;14714;48.106;11.546;2024-02-04T15:23:30;11.70;99.90
27200;DHT22;14714;48.106;11.546;2024-02-04T15:25:58;11.60;99.90
27200;DHT22;14714;48.106;11.546;2024-02-04T15:28:25;11.60;99.90
27200;DHT22;14714;48.106;11.546;2024-02-04T15:30:52;11.60;99.90
27200;DHT22;14714;48.106;11.546;2024-02-04T15:33:19;11.60;99.90
27200;DHT22;14714;48.106;11.546;2024-02-04T15:35:47;11.60;99.90